Time;durP1;ratioP1;P1;durP2;ratioP2;P2;SDS_P1;SDS_P2;PMS_P1;PMS_P2;Temp;Humidity;BMP_temperature;BMP_pressure;BME280_temperature;BME280_humidity;BME280_pressure;Samples;Min_cycle;Max_cycle;Signal;HPM_P1;HPM_P2
2022/04/07 05:32:09;;;;;;;2.75;0.73;;;;;;;;;;4895847;29;20044;-60
2022/04/07 05:34:36;;;;;;;1.30;0.73;;;;;;;;;;4897623;29;20430;-59
2022/04/07 05:37:02;;;;;;;1.35;0.60;;;;;;;;;;4899902;29;20426;-60
2022/04/07 05:39:28;;;;;;;2.05;0.73;;;;;;;;;;4901238;29;20371;-59
2022/04/07 05:41:54;;;;;;;2.63;1.02;;;;;;;;;;4901319;29;20028;-59
2022/04/07 05:44:20;;;;;;;9.98;1.13;;;;;;;;;;4899196;29;20116;-60
2022/04/07 05:46:46;;;;;;;2.45;0.98;;;;;;;;;;4900977;29;20028;-58
2022/04/07 05:49:12;;;;;;;4.55;0.80;;;;;;;;;;4899943;29;20462;-58
2022/04/07 05:51:38;;;;;;;2.88;0.77;;;;;;;;;;4901213;29;20025;-59
2022/04/07 05:54:04;;;;;;;3.22;0.65;;;;;;;;;;4898556;29;20111;-59
2022/04/07 05:56:31;;;;;;;0.98;0.57;;;;;;;;;;4884091;29;20033;-59
2022/04/07 05:58:57;;;;;;;4.95;0.77;;;;;;;;;;4899554;29;20024;-58
2022/04/07 06:01:23;;;;;;;1.63;0.40;;;;;;;;;;4899618;29;20036;-58
2022/04/07 06:03:49;;;;;;;0.70;0.30;;;;;;;;;;4899600;29;20024;-58
2022/04/07 06:06:15;;;;;;;2.78;0.73;;;;;;;;;;4899490;29;20039;-58
2022/04/07 06:08:41;;;;;;;1.77;0.60;;;;;;;;;;4899539;29;20028;-59
2022/04/07 06:11:08;;;;;;;1.85;0.73;;;;;;;;;;4884041;29;20124;-60
2022/04/07 06:13:34;;;;;;;2.30;1.02;;;;;;;;;;4900322;29;20025;-60
2022/04/07 06:16:01;;;;;;;2.15;0.50;;;;;;;;;;4885607;29;20029;-60
2022/04/07 06:18:27;;;;;;;1.63;0.50;;;;;;;;;;4895089;29;20029;-59
2022/04/07 06:20:53;;;;;;;1.50;0.50;;;;;;;;;;4899313;29;20036;-59
2022/04/07 06:23:19;;;;;;;1.60;0.60;;;;;;;;;;4900604;29;20017;-59
2022/04/07 06:25:46;;;;;;;2.03;0.85;;;;;;;;;;4900275;29;20068;-59
2022/04/07 06:28:12;;;;;;;1.02;0.50;;;;;;;;;;4900005;29;20031;-60
2022/04/07 06:30:38;;;;;;;1.17;0.55;;;;;;;;;;4899844;29;20056;-59
2022/04/07 06:33:04;;;;;;;0.82;0.50;;;;;;;;;;4899672;29;20032;-59
2022/04/07 06:35:30;;;;;;;0.75;0.30;;;;;;;;;;4899081;29;20032;-59
2022/04/07 06:37:57;;;;;;;0.98;0.40;;;;;;;;;;4899093;29;20497;-59
2022/04/07 06:40:27;;;;;;;1.17;0.60;;;;;;;;;;4898792;29;20060;-59
2022/04/07 06:42:55;;;;;;;1.00;0.55;;;;;;;;;;4899261;29;20040;-60
2022/04/07 06:45:21;;;;;;;3.85;0.50;;;;;;;;;;4899978;29;20119;-60
2022/04/07 06:47:47;;;;;;;0.88;0.43;;;;;;;;;;4898347;29;20029;-59
2022/04/07 06:50:17;;;;;;;1.45;0.40;;;;;;;;;;4900045;29;20096;-59
2022/04/07 06:52:44;;;;;;;3.38;0.80;;;;;;;;;;4895849;29;20025;-59
2022/04/07 06:55:12;;;;;;;1.13;0.55;;;;;;;;;;4895013;29;20035;-59
2022/04/07 06:57:48;;;;;;;2.72;0.90;;;;;;;;;;4882138;29;20387;-59
2022/04/07 07:00:14;;;;;;;4.65;0.93;;;;;;;;;;4882481;29;20032;-60
2022/04/07 07:02:41;;;;;;;4.05;0.90;;;;;;;;;;4899917;29;20040;-59
2022/04/07 07:05:07;;;;;;;1.80;0.85;;;;;;;;;;4899710;29;20517;-59
2022/04/07 07:07:33;;;;;;;2.85;1.38;;;;;;;;;;4898491;29;20029;-60
2022/04/07 07:09:59;;;;;;;1.80;0.80;;;;;;;;;;4898518;29;20032;-59
2022/04/07 07:12:26;;;;;;;2.10;0.75;;;;;;;;;;4899609;29;20024;-59
2022/04/07 07:17:39;;;;;;;1.05;0.35;;;;;;;;;;5225257;23;20060;-92
2022/04/07 07:20:27;;;;;;;0.70;0.40;;;;;;;;;;4918824;29;20122;-93
2022/04/07 07:22:53;;;;;;;2.60;1.35;;;;;;;;;;4918535;29;20036;-94
2022/04/07 07:25:25;;;;;;;5.20;3.45;;;;;;;;;;4918085;29;20044;-92
2022/04/07 07:28:09;;;;;;;2.78;1.83;;;;;;;;;;4918777;29;20465;-94
2022/04/07 07:31:00;;;;;;;2.03;1.10;;;;;;;;;;4919438;29;20060;-93
2022/04/07 07:33:26;;;;;;;1.95;1.10;;;;;;;;;;4918994;29;20032;-94
2022/04/07 07:35:55;;;;;;;1.55;0.70;;;;;;;;;;4934379;29;20035;-95
2022/04/07 07:38:30;;;;;;;2.60;0.70;;;;;;;;;;4931299;29;20039;-92
2022/04/07 07:41:02;;;;;;;1.90;0.70;;;;;;;;;;4933569;29;20119;-94
2022/04/07 07:43:34;;;;;;;1.40;0.60;;;;;;;;;;4933754;29;20028;-93
2022/04/07 07:48:50;;;;;;;2.38;0.77;;;;;;;;;;5005969;23;20075;-93
2022/04/07 07:51:20;;;;;;;1.52;0.70;;;;;;;;;;4940111;29;20050;-94
2022/04/07 07:53:46;;;;;;;2.25;0.65;;;;;;;;;;4929324;29;20030;-95
2022/04/07 07:59:05;;;;;;;1.75;0.70;;;;;;;;;;4942613;29;20024;-93
2022/04/07 08:01:36;;;;;;;2.30;0.80;;;;;;;;;;4929831;29;20114;-94
2022/04/07 08:04:17;;;;;;;1.95;0.75;;;;;;;;;;4934802;29;20034;-93
2022/04/07 08:07:09;;;;;;;3.42;0.95;;;;;;;;;;4929864;29;20067;-94
2022/04/07 08:09:50;;;;;;;1.88;0.70;;;;;;;;;;4933315;29;20118;-94
2022/04/07 08:12:19;;;;;;;1.10;0.57;;;;;;;;;;4933980;29;20058;-95
2022/04/07 08:15:05;;;;;;;1.40;0.60;;;;;;;;;;4932450;29;20393;-93
2022/04/07 08:17:32;;;;;;;2.72;1.08;;;;;;;;;;4928718;29;20038;-94
2022/04/07 08:20:02;;;;;;;1.75;0.93;;;;;;;;;;4931144;29;20019;-93
2022/04/07 08:22:31;;;;;;;1.58;0.90;;;;;;;;;;4931747;29;20110;-94
2022/04/07 08:25:00;;;;;;;2.10;0.75;;;;;;;;;;4931980;29;20151;-94
2022/04/07 08:27:32;;;;;;;2.78;1.00;;;;;;;;;;4919483;29;20119;-94
2022/04/07 08:30:02;;;;;;;2.22;0.95;;;;;;;;;;4920764;29;20028;-94
2022/04/07 08:32:31;;;;;;;3.58;1.48;;;;;;;;;;4934754;29;20519;-94
2022/04/07 08:34:58;;;;;;;2.10;0.85;;;;;;;;;;4940057;29;20061;-94
2022/04/07 08:37:27;;;;;;;2.55;1.00;;;;;;;;;;4938730;29;20019;-93
2022/04/07 08:40:07;;;;;;;1.73;0.80;;;;;;;;;;4936791;29;20054;-93
2022/04/07 08:42:37;;;;;;;4.28;2.22;;;;;;;;;;4936896;29;20578;-93
2022/04/07 08:45:18;;;;;;;4.47;2.33;;;;;;;;;;4948204;29;20043;-92
2022/04/07 08:47:51;;;;;;;4.32;1.80;;;;;;;;;;4943970;29;20039;-93
2022/04/07 08:50:20;;;;;;;3.08;1.30;;;;;;;;;;4942655;29;20078;-90
2022/04/07 08:55:58;;;;;;;2.90;1.30;;;;;;;;;;4959150;29;20571;-93
2022/04/07 08:58:27;;;;;;;2.33;1.13;;;;;;;;;;4938476;29;20043;-94
2022/04/07 09:01:05;;;;;;;;;;;;;;;;;;;;;
2022/04/07 09:03:46;;;;;;;2.03;1.02;;;;;;;;;;4933509;29;20118;-93
2022/04/07 09:06:35;;;;;;;2.40;1.05;;;;;;;;;;4942607;29;20062;-95
2022/04/07 09:09:43;;;;;;;2.92;1.20;;;;;;;;;;4907674;29;20050;-94
2022/04/07 09:12:11;;;;;;;4.03;1.13;;;;;;;;;;4848674;29;20037;-94
2022/04/07 09:14:38;;;;;;;2.55;1.00;;;;;;;;;;4863830;29;20033;-95
2022/04/07 09:17:07;;;;;;;3.60;1.05;;;;;;;;;;4906392;29;20492;-94
2022/04/07 09:19:37;;;;;;;2.67;1.00;;;;;;;;;;4942396;29;20480;-93
2022/04/07 09:22:13;;;;;;;5.07;1.35;;;;;;;;;;4942893;29;20027;-94
2022/04/07 09:24:45;;;;;;;3.05;0.90;;;;;;;;;;4942277;29;20046;-94
2022/04/07 09:27:18;;;;;;;2.92;1.00;;;;;;;;;;4942320;29;20050;-93
2022/04/07 09:29:58;;;;;;;1.70;1.00;;;;;;;;;;4938079;29;20027;-94
2022/04/07 09:32:28;;;;;;;2.70;1.00;;;;;;;;;;4942793;29;20023;-94
2022/04/07 09:35:01;;;;;;;3.95;1.40;;;;;;;;;;4942411;29;20110;-94
2022/04/07 09:37:34;;;;;;;2.10;1.13;;;;;;;;;;4942057;29;20396;-91
2022/04/07 09:40:23;;;;;;;2.50;1.30;;;;;;;;;;4933935;29;20027;-93
2022/04/07 09:43:02;;;;;;;3.00;1.20;;;;;;;;;;4923182;29;20032;-92
2022/04/07 09:55:00;;;;;;;3.03;1.40;;;;;;;;;;4790841;30;20045;-94
2022/04/07 10:00:14;;;;;;;6.10;1.20;;;;;;;;;;4801070;29;20056;-91
2022/04/07 10:02:50;;;;;;;1.83;0.98;;;;;;;;;;4808230;29;20039;-91
2022/04/07 10:05:34;;;;;;;3.13;1.30;;;;;;;;;;4808523;29;20046;-93
2022/04/07 10:08:13;;;;;;;2.13;1.00;;;;;;;;;;4808026;29;20042;-91
2022/04/07 10:11:23;;;;;;;2.45;0.90;;;;;;;;;;4789875;30;20039;-93
2022/04/07 10:14:01;;;;;;;2.13;1.10;;;;;;;;;;4741201;30;20486;-93
2022/04/07 10:16:33;;;;;;;2.08;1.02;;;;;;;;;;4912681;23;20052;-94
2022/04/07 10:19:08;;;;;;;2.20;1.25;;;;;;;;;;4941972;29;20039;-92
2022/04/07 10:21:50;;;;;;;2.20;1.13;;;;;;;;;;4944605;28;20063;-94
2022/04/07 10:24:35;;;;;;;2.35;1.00;;;;;;;;;;4948915;29;20051;-94
2022/04/07 10:27:16;;;;;;;2.00;1.10;;;;;;;;;;4938543;29;20031;-94
2022/04/07 10:30:05;;;;;;;2.38;1.00;;;;;;;;;;4938123;29;20027;-95
2022/04/07 10:32:54;;;;;;;2.63;1.02;;;;;;;;;;4939000;29;20110;-93
2022/04/07 10:41:36;;;;;;;3.08;0.88;;;;;;;;;;4918467;29;20139;-94
2022/04/07 10:44:12;;;;;;;2.25;0.77;;;;;;;;;;4903143;29;20151;-95
2022/04/07 10:46:44;;;;;;;3.30;0.88;;;;;;;;;;4907064;29;20043;-95
2022/04/07 10:52:29;;;;;;;1.58;0.77;;;;;;;;;;4923461;29;20500;-94
2022/04/07 10:55:15;;;;;;;2.15;0.77;;;;;;;;;;4910395;29;20028;-95
2022/04/07 10:58:00;;;;;;;1.35;0.60;;;;;;;;;;4937975;29;20028;-95
2022/04/07 11:00:38;;;;;;;1.10;0.52;;;;;;;;;;4938147;29;20114;-96
2022/04/07 11:03:18;;;;;;;0.88;0.45;;;;;;;;;;4937751;29;20485;-91
2022/04/07 11:06:02;;;;;;;1.60;0.80;;;;;;;;;;4924179;29;20139;-91
2022/04/07 11:08:30;;;;;;;2.20;0.70;;;;;;;;;;4931744;29;20103;-92
2022/04/07 11:10:59;;;;;;;1.02;0.50;;;;;;;;;;4937813;29;20035;-92
2022/04/07 11:13:45;;;;;;;3.40;0.63;;;;;;;;;;4938052;29;20123;-92
2022/04/07 11:16:36;;;;;;;1.15;0.57;;;;;;;;;;4936979;29;20059;-94
2022/04/07 11:19:16;;;;;;;3.08;1.02;;;;;;;;;;4912691;29;20064;-93
2022/04/07 11:21:46;;;;;;;1.88;0.82;;;;;;;;;;4896409;29;20398;-91
2022/04/07 11:24:22;;;;;;;1.92;0.88;;;;;;;;;;4914461;29;20406;-92
2022/04/07 11:26:48;;;;;;;2.35;1.00;;;;;;;;;;4915453;29;20406;-92
2022/04/07 11:45:31;;;;;;;;;;;;;;;;;;;;;
2022/04/07 11:48:15;;;;;;;2.35;0.90;;;;;;;;;;4901314;29;20059;-95
2022/04/07 11:56:54;;;;;;;3.47;0.70;;;;;;;;;;4900321;29;20095;-94
2022/04/07 11:59:26;;;;;;;7.07;1.05;;;;;;;;;;5518823;23;20022;-94
2022/04/07 12:01:56;;;;;;;1.80;0.82;;;;;;;;;;4940700;29;20047;-93
2022/04/07 12:04:46;;;;;;;2.60;0.73;;;;;;;;;;4934776;29;20046;-95
2022/04/07 12:07:12;;;;;;;2.95;0.73;;;;;;;;;;4925601;29;20035;-92
2022/04/07 12:09:42;;;;;;;1.60;0.60;;;;;;;;;;4939709;29;20032;-93
2022/04/07 12:15:14;;;;;;;1.27;0.60;;;;;;;;;;4937681;29;20408;-93
2022/04/07 12:18:02;;;;;;;7.35;0.43;;;;;;;;;;4936686;29;20032;-95
2022/04/07 12:20:51;;;;;;;1.27;0.30;;;;;;;;;;4935732;29;20052;-94
2022/04/07 12:23:47;;;;;;;;;;;;;;;;;;;;;
2022/04/07 12:26:23;;;;;;;2.42;0.50;;;;;;;;;;4936207;29;20457;-95
2022/04/07 12:28:50;;;;;;;1.10;0.47;;;;;;;;;;4930473;29;20021;-93
2022/04/07 12:36:53;;;;;;;1.38;0.40;;;;;;;;;;4942057;29;20057;-94
2022/04/07 12:39:31;;;;;;;3.13;0.50;;;;;;;;;;4923162;29;20030;-95
2022/04/07 12:50:42;;;;;;;7.35;0.50;;;;;;;;;;4972066;23;20079;-90
2022/04/07 12:53:29;;;;;;;1.98;0.52;;;;;;;;;;4935665;29;20086;-92
2022/04/07 12:55:56;;;;;;;5.65;0.57;;;;;;;;;;4934355;29;20042;-91
2022/04/07 12:58:34;;;;;;;1.20;0.50;;;;;;;;;;4935832;29;20039;-93
2022/04/07 13:01:06;;;;;;;1.00;0.50;;;;;;;;;;4933595;29;20161;-93
2022/04/07 13:03:57;;;;;;;1.65;0.47;;;;;;;;;;4937792;29;20032;-96
2022/04/07 13:06:49;;;;;;;1.05;0.47;;;;;;;;;;4928335;29;20074;-93
2022/04/07 13:12:46;;;;;;;1.20;0.52;;;;;;;;;;4858354;29;20048;-93
2022/04/07 13:18:44;;;;;;;2.90;0.70;;;;;;;;;;4833310;29;20064;-93
2022/04/07 13:24:18;;;;;;;0.73;0.30;;;;;;;;;;4959482;23;20112;-92
2022/04/07 13:27:25;;;;;;;1.10;0.55;;;;;;;;;;4912785;29;20041;-95
2022/04/07 13:30:10;;;;;;;1.00;0.30;;;;;;;;;;4934892;29;20122;-94
2022/04/07 13:32:39;;;;;;;1.88;0.40;;;;;;;;;;4910464;29;20040;-94
2022/04/07 13:35:06;;;;;;;1.65;0.57;;;;;;;;;;4911549;29;20034;-96
2022/04/07 13:37:41;;;;;;;0.57;0.20;;;;;;;;;;4916194;29;20043;-95
2022/04/07 13:40:13;;;;;;;0.35;0.20;;;;;;;;;;4913394;29;20478;-92
2022/04/07 13:42:46;;;;;;;0.80;0.20;;;;;;;;;;4908112;29;20159;-92
2022/04/07 13:45:24;;;;;;;0.57;0.17;;;;;;;;;;4924111;29;20122;-95
2022/04/07 13:48:02;;;;;;;0.70;0.30;;;;;;;;;;4907043;29;20039;-93
2022/04/07 13:50:35;;;;;;;1.10;0.40;;;;;;;;;;4909619;29;20028;-94
2022/04/07 13:53:02;;;;;;;4.78;0.30;;;;;;;;;;4908802;29;20521;-93
2022/04/07 13:55:38;;;;;;;0.45;0.20;;;;;;;;;;4912765;29;20066;-93
2022/04/07 13:58:04;;;;;;;4.30;0.50;;;;;;;;;;4907302;29;20046;-94
2022/04/07 14:00:32;;;;;;;0.63;0.20;;;;;;;;;;4905873;29;20024;-94
2022/04/07 14:02:58;;;;;;;3.33;0.30;;;;;;;;;;4916867;29;20047;-93
2022/04/07 14:11:22;;;;;;;0.73;0.30;;;;;;;;;;4940740;29;20387;-89
2022/04/07 14:13:52;;;;;;;3.25;0.30;;;;;;;;;;4923181;29;20485;-91
2022/04/07 14:16:24;;;;;;;0.25;0.10;;;;;;;;;;4923419;29;20024;-91
2022/04/07 14:18:54;;;;;;;2.05;0.40;;;;;;;;;;4923162;29;20028;-90
2022/04/07 14:21:21;;;;;;;1.35;0.28;;;;;;;;;;4923404;29;20038;-91
2022/04/07 14:23:55;;;;;;;0.52;0.20;;;;;;;;;;4933723;29;20136;-91
2022/04/07 14:26:46;;;;;;;1.38;0.30;;;;;;;;;;4939447;29;20103;-92
2022/04/07 14:29:12;;;;;;;1.15;0.30;;;;;;;;;;4940049;29;20118;-93
2022/04/07 14:31:44;;;;;;;2.80;0.50;;;;;;;;;;4976710;23;20027;-93
2022/04/07 14:34:40;;;;;;;0.68;0.20;;;;;;;;;;4946151;29;20484;-95
2022/04/07 14:37:13;;;;;;;2.53;0.20;;;;;;;;;;4953526;29;20039;-92
2022/04/07 14:39:39;;;;;;;1.63;0.17;;;;;;;;;;4948573;29;20027;-94
2022/04/07 14:42:11;;;;;;;0.25;0.10;;;;;;;;;;4948519;29;20187;-94
2022/04/07 14:44:38;;;;;;;4.05;0.32;;;;;;;;;;4948678;29;20558;-94
